Time;durP1;ratioP1;P1;durP2;ratioP2;P2;SDS_P1;SDS_P2;PMS_P1;PMS_P2;Temp;Humidity;BMP_temperature;BMP_pressure;BME280_temperature;BME280_humidity;BME280_pressure;Samples;Min_cycle;Max_cycle;Signal;HPM_P1;HPM_P2
2022/06/28 00:01:43;;;;;;;4.60;4.13;;;;;;;21.38;97.36;101196.59;5076012;28;20437;-73
2022/06/28 00:04:11;;;;;;;3.50;3.20;;;;;;;21.24;97.67;101192.66;5076057;28;20445;-73
2022/06/28 00:06:38;;;;;;;3.87;3.30;;;;;;;21.04;99.50;101195.38;5075678;28;20536;-73
2022/06/28 00:09:06;;;;;;;4.47;3.50;;;;;;;20.98;100.00;101205.03;5075917;28;20520;-73
2022/06/28 00:11:32;;;;;;;5.40;4.00;;;;;;;20.92;100.00;101218.28;5075639;28;20447;-73
2022/06/28 00:13:59;;;;;;;6.70;3.70;;;;;;;20.83;100.00;101220.44;5075633;28;20431;-73
2022/06/28 00:16:25;;;;;;;4.57;3.40;;;;;;;20.77;100.00;101210.84;5075723;28;20503;-73
2022/06/28 00:18:51;;;;;;;5.80;3.60;;;;;;;20.71;100.00;101212.25;5075767;28;20504;-72
2022/06/28 00:21:18;;;;;;;4.93;3.70;;;;;;;20.64;100.00;101210.13;5075721;28;20206;-72
2022/06/28 00:23:48;;;;;;;5.20;3.50;;;;;;;20.42;100.00;101208.72;5075581;28;20468;-72
2022/06/28 00:26:16;;;;;;;6.17;3.93;;;;;;;20.37;100.00;101214.50;5075604;28;20438;-73
2022/06/28 00:28:43;;;;;;;5.17;3.73;;;;;;;20.31;100.00;101220.59;5075561;28;20528;-72
2022/06/28 00:31:09;;;;;;;4.97;4.30;;;;;;;20.26;100.00;101218.88;5075544;28;20437;-73
2022/06/28 00:33:36;;;;;;;13.23;5.27;;;;;;;20.25;100.00;101206.28;5075434;28;20535;-73
2022/06/28 00:36:02;;;;;;;7.90;5.53;;;;;;;20.15;100.00;101224.09;5075375;28;20560;-72
2022/06/28 00:38:29;;;;;;;6.50;5.40;;;;;;;20.16;100.00;101216.66;5075434;28;20446;-73
2022/06/28 00:40:58;;;;;;;8.90;5.17;;;;;;;20.15;100.00;101221.34;5075384;28;20540;-72
2022/06/28 00:43:26;;;;;;;5.70;4.60;;;;;;;20.19;100.00;101224.22;5075227;28;20544;-72
2022/06/28 00:45:52;;;;;;;9.50;5.40;;;;;;;20.22;100.00;101231.75;5074966;28;20797;-73
2022/06/28 00:48:19;;;;;;;6.67;4.70;;;;;;;20.26;100.00;101237.34;5075214;28;20528;-74
2022/06/28 00:50:46;;;;;;;6.03;4.40;;;;;;;20.28;100.00;101238.63;5074433;28;20436;-73
2022/06/28 00:53:15;;;;;;;7.27;5.40;;;;;;;20.29;100.00;101222.91;5075070;28;20461;-73
2022/06/28 00:55:43;;;;;;;7.50;4.97;;;;;;;20.22;100.00;101225.44;5075035;28;20437;-73
2022/06/28 00:58:10;;;;;;;8.30;5.33;;;;;;;20.24;100.00;101221.22;5074978;28;20448;-73
2022/06/28 01:00:41;;;;;;;9.00;5.77;;;;;;;20.15;100.00;101220.56;5074972;28;20524;-73
2022/06/28 01:03:09;;;;;;;6.53;4.90;;;;;;;20.11;100.00;101205.91;5074772;28;20466;-73
2022/06/28 01:05:37;;;;;;;8.00;5.30;;;;;;;20.12;100.00;101215.75;5074828;28;20445;-73
2022/06/28 01:08:05;;;;;;;5.77;4.33;;;;;;;20.14;100.00;101210.69;5074868;28;20441;-73
2022/06/28 01:10:32;;;;;;;7.33;5.50;;;;;;;20.16;100.00;101220.19;5074752;28;20448;-73
2022/06/28 01:12:59;;;;;;;7.40;5.00;;;;;;;20.20;100.00;101231.31;5074577;28;20579;-72
2022/06/28 01:15:26;;;;;;;7.77;5.30;;;;;;;20.18;100.00;101233.59;5074398;28;21013;-73
2022/06/28 01:17:54;;;;;;;11.10;5.87;;;;;;;20.16;100.00;101219.41;5074593;28;20490;-72
2022/06/28 01:20:21;;;;;;;5.77;3.90;;;;;;;20.12;100.00;101224.00;5074556;28;20441;-73
2022/06/28 01:22:49;;;;;;;6.30;5.10;;;;;;;20.19;100.00;101235.22;5074541;28;20831;-73
2022/06/28 01:25:15;;;;;;;9.57;5.20;;;;;;;20.20;100.00;101245.06;5074251;28;21022;-73
2022/06/28 01:27:42;;;;;;;9.00;4.93;;;;;;;20.17;100.00;101260.31;5074422;28;20525;-73
2022/06/28 01:30:10;;;;;;;5.97;4.37;;;;;;;20.10;100.00;101253.81;5074370;28;20447;-72
2022/06/28 01:32:37;;;;;;;9.00;4.60;;;;;;;20.07;100.00;101265.50;5074338;28;20826;-73
2022/06/28 01:35:05;;;;;;;8.00;5.33;;;;;;;20.01;100.00;101267.72;5074174;28;20477;-73
2022/06/28 01:37:32;;;;;;;6.80;4.03;;;;;;;19.96;100.00;101269.88;5073829;28;20524;-73
2022/06/28 01:40:00;;;;;;;8.03;5.93;;;;;;;19.89;100.00;101273.25;5074223;28;20446;-72
2022/06/28 01:42:29;;;;;;;7.10;4.93;;;;;;;19.84;100.00;101266.03;5074375;28;20458;-74
2022/06/28 01:44:57;;;;;;;9.67;5.00;;;;;;;19.81;100.00;101274.97;5074031;28;20893;-73
2022/06/28 01:47:27;;;;;;;11.70;5.57;;;;;;;19.78;100.00;101269.34;5074113;28;20437;-72
2022/06/28 01:49:55;;;;;;;8.97;5.03;;;;;;;19.72;100.00;101263.31;5074297;28;20524;-72
2022/06/28 01:52:22;;;;;;;6.70;4.40;;;;;;;19.67;100.00;101268.25;5073892;28;20560;-72
2022/06/28 01:54:49;;;;;;;6.77;5.00;;;;;;;19.72;100.00;101266.06;5073581;28;20965;-71
2022/06/28 01:57:17;;;;;;;5.27;4.10;;;;;;;19.74;100.00;101262.94;5073773;28;20483;-72
2022/06/28 01:59:44;;;;;;;7.77;5.57;;;;;;;19.67;100.00;101258.03;5073834;28;20540;-71
2022/06/28 02:02:11;;;;;;;6.37;4.57;;;;;;;19.73;100.00;101264.09;5073299;28;20548;-72
2022/06/28 02:04:37;;;;;;;8.30;5.37;;;;;;;19.71;100.00;101256.22;5074842;28;20905;-72
2022/06/28 02:07:05;;;;;;;9.77;5.63;;;;;;;19.74;100.00;101258.25;5073377;28;20539;-71
2022/06/28 02:09:31;;;;;;;6.57;4.50;;;;;;;19.79;100.00;101265.44;5073632;28;20525;-73
2022/06/28 02:11:58;;;;;;;7.40;5.10;;;;;;;19.79;100.00;101271.78;5073290;28;21032;-72
2022/06/28 02:14:26;;;;;;;9.47;5.60;;;;;;;19.80;100.00;101278.88;5073169;28;20446;-73
2022/06/28 02:16:53;;;;;;;4.27;3.77;;;;;;;19.79;100.00;101303.94;5073371;28;20568;-73
2022/06/28 02:19:19;;;;;;;6.63;4.33;;;;;;;19.79;100.00;101315.78;5073406;28;20872;-73
2022/06/28 02:21:46;;;;;;;5.60;4.10;;;;;;;19.77;100.00;101315.28;5073427;28;20536;-73
2022/06/28 02:24:13;;;;;;;5.80;4.10;;;;;;;19.79;100.00;101331.44;5073479;28;20452;-74
2022/06/28 02:26:40;;;;;;;9.53;4.97;;;;;;;19.75;100.00;101327.81;5073107;28;20935;-74
2022/06/28 02:29:08;;;;;;;6.03;4.87;;;;;;;19.75;100.00;101323.09;5073279;28;20528;-73
2022/06/28 02:31:37;;;;;;;7.27;4.50;;;;;;;19.74;100.00;101323.44;5073175;28;20521;-73
2022/06/28 02:34:05;;;;;;;8.23;5.97;;;;;;;19.68;100.00;101333.88;5073065;28;20437;-73
2022/06/28 02:42:00;;;;;;;4.97;4.07;;;;;;;19.67;100.00;101365.25;5072951;28;20460;-73
2022/06/28 02:44:27;;;;;;;5.67;4.40;;;;;;;19.63;100.00;101372.56;5073140;28;20532;-73
2022/06/28 02:46:54;;;;;;;4.73;3.63;;;;;;;19.55;100.00;101376.19;5072843;28;20524;-73
2022/06/28 02:49:21;;;;;;;4.30;3.40;;;;;;;19.43;100.00;101376.97;5073090;28;20441;-73
2022/06/28 02:51:48;;;;;;;3.20;2.80;;;;;;;19.44;100.00;101370.38;5073046;28;20457;-73
2022/06/28 02:54:15;;;;;;;5.80;3.43;;;;;;;19.46;100.00;101368.06;5073066;28;20508;-74
2022/06/28 02:56:42;;;;;;;5.10;2.80;;;;;;;19.44;100.00;101375.88;5072996;28;20560;-73
2022/06/28 02:59:09;;;;;;;6.10;3.20;;;;;;;19.39;100.00;101384.34;5073125;28;20445;-73
2022/06/28 03:01:35;;;;;;;3.73;2.97;;;;;;;19.38;100.00;101397.25;5072964;28;20467;-73
2022/06/28 03:04:04;;;;;;;6.47;2.87;;;;;;;19.28;100.00;101396.88;5073217;28;20451;-73
2022/06/28 03:06:30;;;;;;;3.80;2.80;;;;;;;19.29;100.00;101407.53;5072607;28;20825;-73
2022/06/28 03:08:57;;;;;;;4.23;3.03;;;;;;;19.21;100.00;101422.16;5072659;28;21021;-73
2022/06/28 03:11:24;;;;;;;3.77;2.60;;;;;;;19.31;100.00;101427.25;5072946;28;20442;-73
2022/06/28 03:13:50;;;;;;;2.80;2.20;;;;;;;19.27;100.00;101425.50;5072764;28;20473;-74
2022/06/28 03:16:17;;;;;;;6.63;3.53;;;;;;;19.24;100.00;101440.72;5076876;28;20449;-73
2022/06/28 03:18:44;;;;;;;3.50;2.53;;;;;;;19.28;100.00;101438.91;5076883;28;20572;-73
2022/06/28 03:21:12;;;;;;;3.73;2.13;;;;;;;19.24;100.00;101448.16;5076872;28;20473;-73
2022/06/28 03:23:38;;;;;;;3.40;2.80;;;;;;;19.26;100.00;101449.44;5076648;28;20483;-73
2022/06/28 03:26:05;;;;;;;4.43;2.30;;;;;;;19.31;100.00;101449.22;5076650;28;20443;-73
2022/06/28 03:28:32;;;;;;;4.60;2.80;;;;;;;19.41;100.00;101465.25;5076571;28;20433;-73
2022/06/28 03:30:58;;;;;;;3.30;1.80;;;;;;;19.39;100.00;101475.00;5076238;28;20942;-73
2022/06/28 03:33:25;;;;;;;4.33;2.63;;;;;;;19.38;100.00;101465.94;5076464;28;20489;-73
2022/06/28 03:35:51;;;;;;;4.07;2.43;;;;;;;19.44;100.00;101465.75;5076467;28;20477;-72
2022/06/28 03:38:19;;;;;;;4.73;2.40;;;;;;;19.51;100.00;101465.97;5076077;28;20573;-72
2022/06/28 03:40:46;;;;;;;3.60;2.33;;;;;;;19.51;100.00;101472.28;5076520;28;20528;-72
2022/06/28 03:43:12;;;;;;;3.10;2.10;;;;;;;19.47;100.00;101487.81;5076241;28;20874;-71
2022/06/28 03:45:39;;;;;;;5.60;2.10;;;;;;;19.46;100.00;101496.41;5076272;28;20440;-71
2022/06/28 03:48:06;;;;;;;3.57;2.60;;;;;;;19.52;100.00;101497.81;5076076;28;20433;-70
2022/06/28 03:50:33;;;;;;;3.20;2.30;;;;;;;19.55;100.00;101502.63;5075847;28;20451;-70
2022/06/28 03:52:59;;;;;;;2.37;1.80;;;;;;;19.63;100.00;101501.78;5075868;28;20471;-70
2022/06/28 03:55:27;;;;;;;5.20;2.07;;;;;;;19.62;100.00;101497.41;5076064;28;20441;-70
2022/06/28 03:57:54;;;;;;;4.07;2.13;;;;;;;19.68;100.00;101498.00;5075962;28;20477;-70
2022/06/28 04:00:20;;;;;;;3.73;2.47;;;;;;;19.72;100.00;101507.97;5075967;28;20524;-70
2022/06/28 04:02:47;;;;;;;3.53;2.07;;;;;;;19.64;100.00;101501.41;5075752;28;20471;-70
2022/06/28 04:05:14;;;;;;;2.20;1.63;;;;;;;19.62;100.00;101497.41;5075600;28;20894;-70
2022/06/28 04:07:40;;;;;;;2.80;2.43;;;;;;;19.58;100.00;101486.25;5075866;28;20524;-70
2022/06/28 04:10:08;;;;;;;4.87;1.97;;;;;;;19.55;100.00;101486.94;5075875;28;20528;-69
2022/06/28 04:12:36;;;;;;;2.83;1.97;;;;;;;19.47;100.00;101489.78;5075435;28;20484;-70
2022/06/28 04:15:03;;;;;;;4.90;2.50;;;;;;;19.31;100.00;101484.13;5075827;28;20516;-70
2022/06/28 04:17:30;;;;;;;2.30;1.70;;;;;;;19.19;100.00;101489.56;5075401;28;21002;-70
2022/06/28 04:19:56;;;;;;;3.53;2.30;;;;;;;18.98;100.00;101479.41;5075774;28;20437;-69
2022/06/28 04:22:23;;;;;;;2.50;1.77;;;;;;;18.88;100.00;101477.06;5075585;28;20487;-70
2022/06/28 04:24:50;;;;;;;3.00;1.90;;;;;;;18.77;100.00;101476.69;5075435;28;20448;-70
2022/06/28 04:27:16;;;;;;;3.77;2.40;;;;;;;18.76;100.00;101474.25;5075059;28;21014;-70
2022/06/28 04:29:44;;;;;;;2.77;2.13;;;;;;;18.69;100.00;101471.22;5075185;28;20477;-71
2022/06/28 04:32:11;;;;;;;3.40;2.40;;;;;;;18.64;100.00;101474.97;5075405;28;20543;-71
2022/06/28 04:34:37;;;;;;;3.70;2.70;;;;;;;18.57;100.00;101466.47;5075423;28;20437;-71
2022/06/28 04:37:04;;;;;;;4.07;2.87;;;;;;;18.50;100.00;101477.16;5075306;28;20537;-71
2022/06/28 04:39:31;;;;;;;4.23;2.63;;;;;;;18.37;100.00;101460.63;5075527;28;20438;-71
2022/06/28 04:41:58;;;;;;;4.97;2.80;;;;;;;18.33;100.00;101450.66;5074951;28;21042;-71
2022/06/28 04:44:24;;;;;;;5.50;2.80;;;;;;;18.36;100.00;101452.69;5075282;28;20520;-71
2022/06/28 04:46:52;;;;;;;5.30;2.80;;;;;;;18.40;100.00;101442.69;5075297;28;20537;-72
2022/06/28 04:49:19;;;;;;;3.03;2.30;;;;;;;18.38;100.00;101447.72;5075221;28;20871;-71
2022/06/28 04:51:45;;;;;;;3.37;2.33;;;;;;;18.38;100.00;101447.72;5075165;28;20448;-71
2022/06/28 04:54:12;;;;;;;4.83;3.07;;;;;;;18.42;100.00;101445.91;5074901;28;20960;-72
2022/06/28 04:56:38;;;;;;;3.87;2.40;;;;;;;18.42;100.00;101443.16;5074734;28;20525;-73
2022/06/28 04:59:05;;;;;;;4.67;2.60;;;;;;;18.49;100.00;101437.94;5074247;28;20802;-72
2022/06/28 05:01:32;;;;;;;3.00;2.10;;;;;;;18.52;100.00;101440.03;5074476;28;20537;-72
2022/06/28 05:04:00;;;;;;;5.17;3.40;;;;;;;18.52;100.00;101455.69;5074556;28;20467;-72
2022/06/28 05:06:26;;;;;;;3.83;3.03;;;;;;;18.43;100.00;101450.25;5074334;28;21030;-72
2022/06/28 05:08:55;;;;;;;4.87;2.67;;;;;;;18.45;100.00;101438.94;5074875;28;20460;-72
2022/06/28 05:11:22;;;;;;;3.90;2.80;;;;;;;18.46;100.00;101440.53;5074977;28;20442;-72
2022/06/28 05:13:49;;;;;;;5.30;3.30;;;;;;;18.46;100.00;101444.09;5074262;28;20481;-72
2022/06/28 05:16:16;;;;;;;4.60;2.90;;;;;;;18.47;100.00;101453.13;5074414;28;20449;-72
2022/06/28 05:18:42;;;;;;;3.77;2.60;;;;;;;18.47;100.00;101456.69;5074496;28;20508;-72
2022/06/28 05:21:10;;;;;;;3.80;2.77;;;;;;;18.40;100.00;101459.13;5074298;28;20524;-72
2022/06/28 05:23:37;;;;;;;4.17;2.50;;;;;;;18.44;100.00;101451.06;5074442;28;20535;-72
2022/06/28 05:26:04;;;;;;;2.27;2.03;;;;;;;18.41;100.00;101452.50;5074482;28;20440;-72
2022/06/28 05:28:31;;;;;;;3.93;2.60;;;;;;;18.47;100.00;101456.69;5073968;28;20480;-72
2022/06/28 05:30:58;;;;;;;3.30;2.57;;;;;;;18.44;100.00;101454.59;5073989;28;20475;-72
2022/06/28 05:33:25;;;;;;;3.70;2.80;;;;;;;18.36;100.00;101453.50;5074263;28;20829;-72
2022/06/28 05:35:52;;;;;;;3.90;2.73;;;;;;;18.36;100.00;101445.28;5074158;28;20540;-72
2022/06/28 05:38:19;;;;;;;3.83;2.20;;;;;;;18.32;100.00;101457.25;5073406;28;20484;-72
2022/06/28 05:40:46;;;;;;;5.10;2.37;;;;;;;18.27;100.00;101454.69;5074191;28;20433;-72
2022/06/28 05:43:13;;;;;;;3.07;2.30;;;;;;;18.25;100.00;101446.00;5074076;28;20504;-72
2022/06/28 05:45:39;;;;;;;3.03;2.30;;;;;;;18.30;100.00;101454.03;5073838;28;20445;-72
2022/06/28 05:48:07;;;;;;;3.10;2.20;;;;;;;18.29;100.00;101458.72;5073585;28;20490;-71
2022/06/28 05:50:33;;;;;;;3.13;2.27;;;;;;;18.30;100.00;101452.09;5073601;28;20437;-72
2022/06/28 05:53:00;;;;;;;3.23;2.40;;;;;;;18.37;100.00;101455.13;5073460;28;20552;-72
2022/06/28 05:55:28;;;;;;;3.13;2.30;;;;;;;18.49;100.00;101459.09;5073521;28;20520;-73
2022/06/28 05:57:55;;;;;;;4.10;2.50;;;;;;;18.56;100.00;101460.16;5073772;28;20477;-73
2022/06/28 06:00:22;;;;;;;4.20;2.23;;;;;;;18.62;100.00;101458.03;5073655;28;20535;-72
2022/06/28 06:02:48;;;;;;;3.83;2.30;;;;;;;18.68;100.00;101456.66;5073344;28;20552;-73
2022/06/28 06:05:16;;;;;;;4.30;2.67;;;;;;;18.71;100.00;101461.53;5073692;28;20437;-73
2022/06/28 06:07:43;;;;;;;2.67;2.43;;;;;;;18.83;100.00;101456.13;5073344;28;20811;-72
2022/06/28 06:10:10;;;;;;;2.80;2.00;;;;;;;18.86;100.00;101454.66;5073636;28;20528;-72
2022/06/28 06:12:38;;;;;;;2.30;1.70;;;;;;;18.92;100.00;101455.25;5073284;28;20556;-72
2022/06/28 06:15:06;;;;;;;3.30;2.47;;;;;;;19.06;99.33;101464.78;5073607;28;20475;-75
2022/06/28 06:17:32;;;;;;;3.40;1.70;;;;;;;19.10;97.74;101462.97;5073176;28;20540;-72
2022/06/28 06:19:59;;;;;;;2.37;1.97;;;;;;;19.07;96.53;101460.91;5073540;28;20476;-72
2022/06/28 06:22:26;;;;;;;3.50;2.37;;;;;;;19.02;96.35;101457.56;5073403;28;20503;-72
2022/06/28 06:24:52;;;;;;;2.50;2.10;;;;;;;19.00;97.11;101460.66;5073447;28;20970;-72
2022/06/28 06:27:19;;;;;;;2.50;2.00;;;;;;;19.13;98.33;101467.00;5073098;28;20792;-72
2022/06/28 06:29:47;;;;;;;6.70;2.50;;;;;;;19.18;96.68;101455.81;5073420;28;20524;-72
2022/06/28 06:32:13;;;;;;;2.57;2.10;;;;;;;19.14;95.23;101471.34;5072851;28;20804;-72
2022/06/28 06:34:40;;;;;;;2.80;1.87;;;;;;;19.08;95.18;101459.78;5072852;28;20456;-73
2022/06/28 06:37:06;;;;;;;3.20;2.20;;;;;;;19.11;95.74;101459.09;5073369;28;20429;-73
2022/06/28 06:39:33;;;;;;;2.90;2.00;;;;;;;19.19;95.91;101467.59;5073351;28;20576;-74
2022/06/28 06:42:01;;;;;;;3.50;1.87;;;;;;;19.27;94.90;101475.75;5073316;28;20902;-74
2022/06/28 06:44:27;;;;;;;2.60;2.03;;;;;;;19.36;93.80;101470.97;5073350;28;20445;-74
2022/06/28 06:46:56;;;;;;;4.10;2.63;;;;;;;19.37;92.44;101464.34;5073249;28;20437;-74
2022/06/28 06:49:22;;;;;;;5.30;2.20;;;;;;;19.15;94.21;101472.97;5073155;28;20449;-73
2022/06/28 06:51:49;;;;;;;3.53;1.37;;;;;;;19.16;94.68;101474.56;5072854;28;21040;-74
2022/06/28 06:54:16;;;;;;;2.40;1.57;;;;;;;19.23;94.07;101474.81;5073179;28;20528;-74
2022/06/28 06:56:43;;;;;;;2.93;1.70;;;;;;;19.16;93.60;101489.09;5073167;28;20448;-75
2022/06/28 06:59:12;;;;;;;3.30;1.67;;;;;;;19.15;93.57;101497.69;5073063;28;20481;-74
2022/06/28 07:01:39;;;;;;;3.37;1.77;;;;;;;19.23;93.29;101502.28;5072963;28;20441;-74
2022/06/28 07:04:08;;;;;;;2.20;1.90;;;;;;;19.32;93.23;101504.97;5072837;28;20818;-73
2022/06/28 07:06:35;;;;;;;4.97;2.47;;;;;;;19.37;93.29;101505.56;5073043;28;20441;-73
2022/06/28 07:09:02;;;;;;;3.40;1.90;;;;;;;19.48;93.08;101514.19;5072702;28;20453;-73
2022/06/28 07:11:28;;;;;;;3.67;2.23;;;;;;;19.70;90.62;101512.19;5072878;28;20806;-73
2022/06/28 07:13:55;;;;;;;3.97;2.30;;;;;;;19.86;90.05;101519.44;5072788;28;20487;-73
2022/06/28 07:16:22;;;;;;;2.20;1.80;;;;;;;19.97;89.83;101525.31;5072960;28;20495;-73
2022/06/28 07:18:49;;;;;;;2.33;1.80;;;;;;;20.10;88.58;101535.19;5072905;28;20513;-74
2022/06/28 07:21:17;;;;;;;2.77;1.90;;;;;;;20.16;87.89;101541.28;5072522;28;20955;-73
2022/06/28 07:23:44;;;;;;;2.83;1.83;;;;;;;20.11;86.92;101536.00;5072791;28;20462;-73
2022/06/28 07:26:11;;;;;;;1.70;1.50;;;;;;;20.15;86.50;101539.69;5072908;28;20480;-73
2022/06/28 07:28:38;;;;;;;2.20;1.40;;;;;;;20.17;85.74;101549.19;5072517;28;20464;-73
2022/06/28 07:31:05;;;;;;;3.10;1.63;;;;;;;20.26;86.19;101553.78;5072573;28;20476;-73
2022/06/28 07:33:32;;;;;;;2.40;1.50;;;;;;;20.31;87.15;101554.34;5072374;28;20874;-73
2022/06/28 07:35:59;;;;;;;1.23;1.00;;;;;;;20.28;85.08;101566.06;5072803;28;20438;-73
2022/06/28 07:38:29;;;;;;;1.87;1.37;;;;;;;20.26;86.27;101560.06;5071160;28;21020;-73
2022/06/28 07:40:56;;;;;;;1.97;1.57;;;;;;;20.31;85.40;101567.31;5072472;28;20433;-73
2022/06/28 07:43:24;;;;;;;4.67;1.87;;;;;;;20.55;84.27;101572.84;5072619;28;20510;-73
2022/06/28 07:45:51;;;;;;;1.10;0.90;;;;;;;20.65;82.98;101577.09;5072764;28;20544;-76
2022/06/28 07:48:19;;;;;;;2.17;1.40;;;;;;;20.60;83.14;101569.88;5072674;28;20479;-75
2022/06/28 07:53:32;;;;;;;1.90;1.13;;;;;;;20.79;82.02;101573.97;5072298;28;20437;-75
2022/06/28 07:55:59;;;;;;;2.10;1.27;;;;;;;20.89;80.21;101579.84;5072159;28;20440;-75
2022/06/28 07:58:26;;;;;;;3.80;1.63;;;;;;;20.93;80.00;101588.19;5072329;28;20488;-75
2022/06/28 08:00:53;;;;;;;1.70;1.17;;;;;;;20.97;80.03;101593.81;5073906;28;20536;-75
2022/06/28 08:03:19;;;;;;;1.47;1.17;;;;;;;21.05;79.27;101603.91;5075733;28;20982;-74
2022/06/28 08:05:46;;;;;;;1.17;1.00;;;;;;;21.08;79.24;101603.22;5076090;28;20540;-75
2022/06/28 08:08:13;;;;;;;1.30;0.80;;;;;;;20.99;78.38;101597.03;5076000;28;20452;-75
2022/06/28 08:10:40;;;;;;;1.80;1.17;;;;;;;21.24;78.39;101608.78;5075983;28;20909;-74
2022/06/28 08:13:07;;;;;;;2.07;1.10;;;;;;;21.27;78.11;101611.66;5075423;28;20899;-75
2022/06/28 08:15:34;;;;;;;1.53;1.07;;;;;;;21.27;77.57;101619.13;5075826;28;20445;-75
2022/06/28 08:18:01;;;;;;;1.80;0.90;;;;;;;21.24;78.16;101609.56;5075552;28;20827;-75
2022/06/28 08:20:31;;;;;;;1.77;1.20;;;;;;;21.36;76.10;101617.06;5075433;28;20484;-74
2022/06/28 08:22:57;;;;;;;1.03;0.63;;;;;;;21.39;75.89;101610.84;5075730;28;20461;-75
2022/06/28 08:25:24;;;;;;;1.30;0.90;;;;;;;21.49;75.65;101615.06;5075731;28;20445;-74
2022/06/28 08:27:52;;;;;;;1.00;0.60;;;;;;;21.60;76.55;101616.16;5075683;28;20436;-74
2022/06/28 08:30:19;;;;;;;1.73;1.23;;;;;;;21.78;76.03;101617.47;5075639;28;20463;-73
2022/06/28 08:32:46;;;;;;;1.27;0.90;;;;;;;21.91;73.61;101619.03;5075550;28;20462;-71
2022/06/28 08:35:12;;;;;;;2.57;1.20;;;;;;;22.01;73.00;101619.66;5075520;28;20524;-74
2022/06/28 08:37:39;;;;;;;2.13;1.00;;;;;;;21.81;75.59;101627.00;5075043;28;20871;-75
2022/06/28 08:40:07;;;;;;;1.87;0.80;;;;;;;21.82;72.73;101625.81;5075393;28;20496;-74
2022/06/28 08:42:37;;;;;;;3.00;0.77;;;;;;;21.78;71.91;101625.75;5075370;28;20465;-74
2022/06/28 08:45:06;;;;;;;1.47;0.90;;;;;;;21.83;72.51;101625.50;5075066;28;20989;-74
2022/06/28 08:47:36;;;;;;;1.23;0.83;;;;;;;21.97;71.80;101624.28;5075008;28;20448;-74
2022/06/28 08:50:07;;;;;;;1.20;0.90;;;;;;;22.08;71.92;101636.38;5075219;28;20437;-75
2022/06/28 08:52:35;;;;;;;1.73;0.90;;;;;;;22.13;70.40;101633.41;5075154;28;20548;-75
2022/06/28 08:55:03;;;;;;;1.57;0.97;;;;;;;22.10;73.58;101623.06;5074847;28;20441;-76
2022/06/28 08:57:32;;;;;;;1.53;0.77;;;;;;;22.23;72.91;101630.13;5075113;28;20870;-76
2022/06/28 08:59:59;;;;;;;1.00;0.80;;;;;;;22.35;70.34;101632.78;5075032;28;20485;-75
2022/06/28 09:02:27;;;;;;;0.90;0.67;;;;;;;22.40;71.97;101638.06;5074983;28;20913;-74
2022/06/28 09:04:54;;;;;;;1.40;0.60;;;;;;;22.46;70.17;101646.09;5074690;28;20958;-74
2022/06/28 09:07:21;;;;;;;0.90;0.57;;;;;;;22.46;69.69;101643.31;5074899;28;20437;-76
2022/06/28 09:09:48;;;;;;;1.13;0.87;;;;;;;22.53;70.13;101641.53;5074874;28;20534;-75
2022/06/28 09:12:15;;;;;;;1.63;0.90;;;;;;;22.68;68.43;101650.97;5073501;28;20475;-74
2022/06/28 09:14:42;;;;;;;1.20;1.00;;;;;;;22.78;70.53;101652.38;5074485;28;20446;-74
2022/06/28 09:17:20;;;;;;;0.97;0.70;;;;;;;22.77;69.40;101648.81;5074556;28;20532;-75
2022/06/28 09:19:49;;;;;;;1.37;0.90;;;;;;;22.45;69.61;101645.28;5074090;28;20485;-74
2022/06/28 09:22:35;;;;;;;1.00;0.90;;;;;;;22.28;70.87;101651.16;5074639;28;20489;-75
2022/06/28 09:25:05;;;;;;;0.90;0.60;;;;;;;22.10;68.33;101650.66;5076036;28;20509;-77
2022/06/28 09:27:35;;;;;;;0.93;0.70;;;;;;;22.24;69.29;101644.72;5076493;28;20541;-78
2022/06/28 09:30:03;;;;;;;1.07;0.90;;;;;;;22.42;68.51;101646.78;5077532;28;20442;-78
2022/06/28 09:32:32;;;;;;;6.33;0.90;;;;;;;22.45;69.75;101650.00;5075766;28;21076;-77
2022/06/28 09:35:03;;;;;;;1.63;0.80;;;;;;;22.41;71.60;101650.72;5074708;28;20877;-78
2022/06/28 09:37:34;;;;;;;1.33;0.83;;;;;;;22.79;69.04;101653.97;5076334;28;20450;-78
2022/06/28 09:40:10;;;;;;;1.10;0.80;;;;;;;23.03;66.52;101639.19;5076554;28;20535;-77
2022/06/28 09:42:36;;;;;;;1.00;0.60;;;;;;;22.98;66.50;101639.47;5078508;28;20548;-76
2022/06/28 09:45:04;;;;;;;0.60;0.50;;;;;;;23.00;64.49;101642.66;5074727;28;20818;-77
2022/06/28 09:47:31;;;;;;;1.00;0.57;;;;;;;22.99;65.13;101641.88;5073950;28;20528;-74
2022/06/28 09:49:57;;;;;;;2.80;1.20;;;;;;;22.99;63.43;101641.06;5074222;28;20525;-76
2022/06/28 09:52:29;;;;;;;1.10;0.70;;;;;;;23.16;63.07;101643.44;5074468;28;20471;-77
2022/06/28 09:54:58;;;;;;;0.70;0.50;;;;;;;23.48;63.63;101652.44;5075105;28;20516;-77
2022/06/28 09:57:26;;;;;;;1.27;0.70;;;;;;;23.83;60.20;101646.84;5074885;28;20445;-77
2022/06/28 09:59:54;;;;;;;1.13;0.90;;;;;;;23.99;60.05;101651.47;5075125;28;21053;-77
2022/06/28 10:02:21;;;;;;;1.10;0.80;;;;;;;23.88;59.09;101646.53;5074525;28;20552;-77
2022/06/28 10:04:48;;;;;;;0.90;0.60;;;;;;;23.66;59.76;101645.31;5073714;28;20525;-75
2022/06/28 10:07:15;;;;;;;2.10;0.83;;;;;;;23.46;61.28;101642.88;5073070;28;20525;-76
2022/06/28 10:09:44;;;;;;;1.27;0.70;;;;;;;23.25;60.95;101643.25;5073160;28;20953;-76
2022/06/28 10:15:04;;;;;;;0.93;0.60;;;;;;;23.23;64.03;101628.97;5072980;28;20440;-76
2022/06/28 10:17:52;;;;;;;1.63;0.90;;;;;;;23.55;59.54;101629.63;5073031;28;20425;-75
2022/06/28 10:20:22;;;;;;;0.63;0.43;;;;;;;23.71;60.52;101632.34;5073144;28;20556;-75
2022/06/28 10:22:49;;;;;;;1.17;0.80;;;;;;;23.79;58.40;101634.91;5072451;28;21001;-75
2022/06/28 10:25:18;;;;;;;1.30;0.93;;;;;;;23.80;58.46;101635.69;5072731;28;20473;-75
2022/06/28 10:27:46;;;;;;;0.97;0.60;;;;;;;23.64;59.32;101644.03;5072986;28;20930;-75
2022/06/28 10:30:31;;;;;;;0.97;0.50;;;;;;;23.58;60.72;101634.44;5072757;28;20442;-74
2022/06/28 10:33:05;;;;;;;1.83;0.87;;;;;;;23.85;59.45;101633.44;5073040;28;20461;-75
2022/06/28 10:36:12;;;;;;;1.20;0.60;;;;;;;24.19;58.26;101632.88;5073025;28;20432;-75
2022/06/28 10:38:38;;;;;;;0.90;0.67;;;;;;;24.34;56.21;101627.19;5072718;28;20537;-75
2022/06/28 10:41:14;;;;;;;0.90;0.70;;;;;;;24.26;53.88;101631.03;5072592;28;20668;-76
2022/06/28 10:43:46;;;;;;;0.60;0.40;;;;;;;24.22;53.53;101637.69;5073754;28;20468;-78
2022/06/28 10:46:25;;;;;;;0.90;0.60;;;;;;;24.37;54.89;101623.72;5073851;28;20519;-75
2022/06/28 10:49:13;;;;;;;0.90;0.57;;;;;;;24.57;53.57;101629.19;5074803;28;20465;-76
2022/06/28 10:52:14;;;;;;;0.90;0.60;;;;;;;24.58;55.63;101631.59;5073988;28;20537;-75
2022/06/28 10:55:03;;;;;;;0.70;0.50;;;;;;;24.64;57.90;101632.88;5073276;28;20520;-75
2022/06/28 10:57:36;;;;;;;1.37;0.73;;;;;;;24.36;55.81;101630.41;5072040;28;20449;-76
2022/06/28 11:00:06;;;;;;;1.07;0.60;;;;;;;24.15;53.91;101622.53;5072405;28;20828;-75
2022/06/28 11:02:46;;;;;;;1.37;0.60;;;;;;;24.20;54.00;101618.66;5072491;28;20469;-76
2022/06/28 11:05:13;;;;;;;1.23;0.80;;;;;;;24.41;52.52;101609.94;5072496;28;20422;-75
2022/06/28 11:07:41;;;;;;;0.80;0.50;;;;;;;24.77;51.20;101619.59;5072134;28;21079;-74
2022/06/28 11:10:12;;;;;;;1.20;0.77;;;;;;;24.86;50.24;101630.44;5072336;28;20520;-74
2022/06/28 11:12:42;;;;;;;1.07;0.67;;;;;;;25.08;50.21;101614.94;5071987;28;21005;-75
2022/06/28 11:15:11;;;;;;;0.70;0.40;;;;;;;25.48;48.91;101617.03;5072446;28;20516;-77
2022/06/28 11:17:40;;;;;;;1.50;0.90;;;;;;;25.72;46.07;101617.69;5072353;28;20467;-76
2022/06/28 11:20:10;;;;;;;0.90;0.53;;;;;;;25.87;45.58;101617.50;5071924;28;20568;-75
2022/06/28 11:22:41;;;;;;;2.43;1.03;;;;;;;26.17;46.22;101616.63;5072225;28;20472;-75
2022/06/28 11:25:09;;;;;;;0.90;0.70;;;;;;;26.60;44.64;101611.44;5072733;28;20433;-73
2022/06/28 11:27:42;;;;;;;0.93;0.63;;;;;;;27.21;43.86;101615.41;5074771;28;20448;-74
2022/06/28 11:30:11;;;;;;;1.10;0.80;;;;;;;27.75;43.15;101622.00;5072079;28;20429;-72
2022/06/28 11:32:40;;;;;;;0.80;0.60;;;;;;;28.19;43.02;101614.50;5071801;28;20466;-74
2022/06/28 11:35:09;;;;;;;1.03;0.63;;;;;;;28.48;41.91;101627.28;5072455;28;20444;-73
2022/06/28 11:37:47;;;;;;;0.87;0.63;;;;;;;28.13;40.07;101625.25;5075966;28;20441;-74